createdAt,value
2023-01-09T00:01:42.613Z,3.07
2023-01-09T00:04:47.031Z,4.03
2023-01-09T00:07:48.722Z,4.53
2023-01-09T00:10:50.624Z,4.80
2023-01-09T00:13:52.301Z,5.10
2023-01-09T00:16:57.521Z,4.60
2023-01-09T00:19:59.218Z,4.50
2023-01-09T00:23:00.927Z,4.70
2023-01-09T00:26:05.158Z,5.50
2023-01-09T00:29:06.787Z,5.07
2023-01-09T00:32:10.278Z,4.17
2023-01-09T00:35:16.006Z,4.30
2023-01-09T00:38:20.594Z,4.93
2023-01-09T00:41:34.536Z,4.83
2023-01-09T00:44:43.199Z,4.73
2023-01-09T00:47:49.839Z,4.37
2023-01-09T00:50:52.143Z,5.13
2023-01-09T00:53:54.494Z,5.00
2023-01-09T00:56:57.000Z,5.43
2023-01-09T01:00:01.718Z,5.20
2023-01-09T01:03:03.943Z,5.10
2023-01-09T01:06:29.879Z,5.90
2023-01-09T01:09:31.873Z,5.37
2023-01-09T01:12:47.235Z,5.60
2023-01-09T01:15:52.285Z,5.50
2023-01-09T01:18:59.981Z,4.83
2023-01-09T01:22:14.731Z,4.60
2023-01-09T01:25:42.076Z,5.03
2023-01-09T01:28:44.287Z,4.53
2023-01-09T01:31:46.563Z,4.70
2023-01-09T01:34:58.162Z,4.87
2023-01-09T01:38:00.163Z,4.57
2023-01-09T01:45:03.234Z,5.10
2023-01-09T01:48:31.955Z,6.33
2023-01-09T01:51:41.891Z,5.83
2023-01-09T01:54:49.086Z,5.50
2023-01-09T01:57:56.773Z,4.33
2023-01-09T02:00:59.402Z,4.30
2023-01-09T02:04:02.338Z,4.07
2023-01-09T02:07:12.277Z,2.47
2023-01-09T02:10:24.924Z,2.90
2023-01-09T02:13:27.469Z,2.40
2023-01-09T02:16:43.063Z,2.60
2023-01-09T02:20:09.551Z,3.00
2023-01-09T02:23:38.147Z,2.80
2023-01-09T02:26:40.172Z,3.00
2023-01-09T02:30:48.900Z,3.03
2023-01-09T02:34:25.399Z,2.80
2023-01-09T02:37:43.553Z,2.70
2023-01-09T02:40:56.483Z,2.43
2023-01-09T02:44:20.729Z,2.00
2023-01-09T02:47:24.893Z,1.50
2023-01-09T02:50:58.891Z,2.03
2023-01-09T02:54:04.326Z,1.87
2023-01-09T02:57:43.887Z,2.07
2023-01-09T03:01:12.015Z,1.40
2023-01-09T03:04:46.373Z,1.40
2023-01-09T03:08:04.385Z,1.23
2023-01-09T03:11:09.073Z,1.27
2023-01-09T03:14:19.510Z,1.10
2023-01-09T03:17:45.629Z,1.20
2023-01-09T03:24:33.761Z,1.27
2023-01-09T03:27:36.651Z,1.50
2023-01-09T03:38:08.088Z,1.80
2023-01-09T03:41:19.231Z,1.53
2023-01-09T03:44:21.479Z,1.40
2023-01-09T03:47:54.559Z,1.27
2023-01-09T03:51:04.439Z,1.20
2023-01-09T03:54:06.378Z,1.63
2023-01-09T03:57:11.224Z,1.30
2023-01-09T04:03:58.850Z,1.17
2023-01-09T04:08:01.879Z,1.00
2023-01-09T04:11:13.633Z,1.33
2023-01-09T04:14:18.518Z,1.20
2023-01-09T04:17:56.290Z,1.20
2023-01-09T04:21:33.894Z,1.00
2023-01-09T04:24:35.986Z,0.90
2023-01-09T04:27:49.325Z,0.70
2023-01-09T04:30:54.331Z,0.87
2023-01-09T04:34:28.491Z,0.77
2023-01-09T04:41:49.309Z,0.70
2023-01-09T04:45:12.681Z,0.67
2023-01-09T04:51:57.647Z,0.93
2023-01-09T04:54:59.890Z,0.60
2023-01-09T04:58:02.194Z,0.60
2023-01-09T05:01:27.380Z,0.80
2023-01-09T05:04:32.298Z,0.80
2023-01-09T05:07:38.643Z,0.67
2023-01-09T05:11:10.914Z,0.50
2023-01-09T05:14:13.678Z,0.60
2023-01-09T05:17:28.743Z,0.60
2023-01-09T05:21:28.644Z,1.00
2023-01-09T05:24:45.821Z,0.90
2023-01-09T05:28:13.969Z,0.80
2023-01-09T05:31:16.184Z,0.90
2023-01-09T05:34:20.257Z,0.93
2023-01-09T05:37:24.974Z,0.80
2023-01-09T05:40:39.859Z,0.87
2023-01-09T05:43:42.179Z,1.10
2023-01-09T05:46:46.858Z,1.00
2023-01-09T05:50:01.974Z,0.90
2023-01-09T05:53:03.912Z,1.17
2023-01-09T05:56:12.027Z,1.30
2023-01-09T05:59:19.412Z,1.00
2023-01-09T06:02:31.676Z,0.83
2023-01-09T06:05:36.331Z,1.00
2023-01-09T06:08:47.237Z,1.00
2023-01-09T06:11:51.788Z,1.00
2023-01-09T06:15:11.934Z,1.10
2023-01-09T06:18:16.670Z,1.30
2023-01-09T06:21:18.829Z,1.17
2023-01-09T06:24:20.539Z,1.27
2023-01-09T06:27:22.441Z,1.20
2023-01-09T06:30:24.284Z,1.20
2023-01-09T06:33:26.165Z,1.00
2023-01-09T06:36:30.285Z,1.00
2023-01-09T06:39:32.066Z,1.17
2023-01-09T06:42:33.963Z,1.17
2023-01-09T06:45:36.073Z,1.10
2023-01-09T06:48:37.952Z,1.00
2023-01-09T06:51:39.752Z,1.13
2023-01-09T06:54:41.352Z,1.07
2023-01-09T06:57:43.335Z,1.37
2023-01-09T07:00:46.375Z,1.00
2023-01-09T07:03:48.716Z,1.40
2023-01-09T07:06:52.971Z,1.40
2023-01-09T07:09:54.881Z,1.20
2023-01-09T07:12:56.956Z,1.07
2023-01-09T07:15:58.857Z,1.50
2023-01-09T07:19:00.903Z,1.10
2023-01-09T07:22:03.061Z,1.07
2023-01-09T07:25:05.261Z,1.30
2023-01-09T07:28:07.105Z,0.97
2023-01-09T07:31:09.331Z,1.30
2023-01-09T07:34:11.304Z,1.23
2023-01-09T07:37:19.304Z,0.83
2023-01-09T07:40:22.859Z,1.40
2023-01-09T07:43:27.591Z,1.13
2023-01-09T07:46:32.297Z,0.93
2023-01-09T07:49:34.033Z,1.20
2023-01-09T07:52:35.732Z,1.10
2023-01-09T07:55:37.651Z,1.37
2023-01-09T07:58:58.014Z,1.37
2023-01-09T08:02:23.164Z,1.20
2023-01-09T08:05:45.556Z,1.10
2023-01-09T08:09:06.722Z,1.20
2023-01-09T08:12:27.468Z,1.23
2023-01-09T08:15:29.104Z,1.57
2023-01-09T08:18:31.134Z,1.00
2023-01-09T08:21:32.874Z,1.20
2023-01-09T08:24:37.323Z,1.50
2023-01-09T08:27:57.415Z,1.40
2023-01-09T08:31:01.849Z,1.80
2023-01-09T08:34:03.583Z,1.00
2023-01-09T08:37:14.142Z,0.80
2023-01-09T08:40:39.755Z,0.70
2023-01-09T08:44:00.387Z,1.00
2023-01-09T08:47:08.731Z,1.20
2023-01-09T08:50:10.649Z,0.83
2023-01-09T08:53:12.557Z,0.97
2023-01-09T08:56:15.968Z,1.23
2023-01-09T08:59:18.860Z,0.80
2023-01-09T09:02:20.829Z,1.00
2023-01-09T09:05:24.006Z,0.87
2023-01-09T09:08:28.820Z,1.00
2023-01-09T09:11:31.165Z,1.10
2023-01-09T09:14:51.589Z,1.10
2023-01-09T09:17:55.260Z,1.30
2023-01-09T09:20:57.191Z,1.20
2023-01-09T09:23:59.553Z,1.13
2023-01-09T09:27:01.307Z,1.23
2023-01-09T09:30:03.246Z,1.20
2023-01-09T09:33:05.253Z,1.20
2023-01-09T09:36:07.889Z,1.10
2023-01-09T09:39:09.987Z,1.53
2023-01-09T09:42:41.063Z,1.27
2023-01-09T09:46:08.268Z,1.73
2023-01-09T09:49:23.901Z,2.20
2023-01-09T09:52:48.373Z,1.63
2023-01-09T09:55:53.983Z,1.50
2023-01-09T09:59:01.648Z,1.30
2023-01-09T10:02:47.728Z,1.70
2023-01-09T10:05:54.155Z,1.20
2023-01-09T10:09:06.167Z,1.17
2023-01-09T10:12:08.099Z,1.50
2023-01-09T10:15:19.538Z,1.03
2023-01-09T10:18:30.834Z,1.03
2023-01-09T10:21:57.453Z,0.90
2023-01-09T10:25:05.350Z,0.80
2023-01-09T10:28:25.011Z,0.90
2023-01-09T10:32:11.509Z,0.87
2023-01-09T10:36:06.728Z,0.60
2023-01-09T10:39:21.463Z,1.00
2023-01-09T10:42:40.025Z,0.80
2023-01-09T10:45:50.845Z,0.90
2023-01-09T10:49:02.612Z,0.70
2023-01-09T10:52:20.519Z,1.00
2023-01-09T10:55:45.513Z,0.90
2023-01-09T10:58:47.858Z,1.10
2023-01-09T11:01:50.052Z,1.00
2023-01-09T11:04:52.179Z,1.00
2023-01-09T11:07:59.396Z,1.40
2023-01-09T11:11:03.537Z,0.90
2023-01-09T11:14:18.291Z,1.00
2023-01-09T11:17:30.374Z,1.00
2023-01-09T11:20:32.007Z,1.00
2023-01-09T11:23:33.971Z,0.80
2023-01-09T11:26:35.674Z,0.90
2023-01-09T11:29:37.820Z,0.90
2023-01-09T11:32:39.710Z,1.17
2023-01-09T11:36:16.570Z,1.00
2023-01-09T11:39:30.071Z,0.90
2023-01-09T11:42:50.562Z,1.00
2023-01-09T11:46:01.262Z,0.90
2023-01-09T11:49:22.666Z,0.80
2023-01-09T11:52:26.441Z,1.10
2023-01-09T11:55:34.877Z,0.93
2023-01-09T11:58:44.154Z,1.20
2023-01-09T12:01:51.758Z,0.70
2023-01-09T12:04:58.523Z,0.87
2023-01-09T12:08:20.425Z,0.73
2023-01-09T12:11:47.653Z,0.97
2023-01-09T12:14:49.246Z,1.20
2023-01-09T12:17:59.301Z,0.93
2023-01-09T12:21:28.369Z,1.00
2023-01-09T12:24:51.304Z,0.80
2023-01-09T12:28:03.688Z,0.90
2023-01-09T12:31:26.638Z,1.10
2023-01-09T12:34:31.355Z,1.10
2023-01-09T12:38:05.253Z,1.10
2023-01-09T12:41:24.752Z,1.10
2023-01-09T12:44:46.998Z,1.00
2023-01-09T12:47:53.300Z,1.60
2023-01-09T12:51:00.902Z,1.10
2023-01-09T12:54:10.250Z,1.20
2023-01-09T12:57:32.779Z,1.10
2023-01-09T13:00:41.215Z,0.90
2023-01-09T13:04:03.093Z,1.90
2023-01-09T13:07:12.853Z,0.70
2023-01-09T13:10:27.865Z,0.77
2023-01-09T13:13:51.923Z,1.20
2023-01-09T13:16:56.711Z,0.90
2023-01-09T13:19:58.939Z,1.00
2023-01-09T13:23:02.761Z,0.97
2023-01-09T13:26:08.998Z,1.10
2023-01-09T13:29:22.064Z,1.30
2023-01-09T13:32:26.746Z,1.20
2023-01-09T13:35:28.537Z,1.10
2023-01-09T13:38:32.415Z,1.00
2023-01-09T13:42:06.473Z,1.00
2023-01-09T13:45:25.620Z,0.60
2023-01-09T13:48:31.333Z,1.47
2023-01-09T13:51:44.048Z,0.80
2023-01-09T13:55:00.856Z,1.20
2023-01-09T13:58:06.016Z,0.70
2023-01-09T14:01:34.444Z,1.00
2023-01-09T14:04:43.653Z,0.97
2023-01-09T14:07:49.390Z,0.70
2023-01-09T14:10:55.967Z,0.80
2023-01-09T14:14:14.423Z,1.20
2023-01-09T14:17:23.195Z,0.80
2023-01-09T14:20:35.846Z,0.80
2023-01-09T14:23:53.885Z,1.00
2023-01-09T14:27:01.381Z,0.70
2023-01-09T14:30:28.364Z,2.13
2023-01-09T14:33:36.692Z,1.50
2023-01-09T14:36:41.446Z,0.90
2023-01-09T14:39:45.779Z,0.90
2023-01-09T14:42:50.534Z,0.87
2023-01-09T14:45:56.559Z,1.10
2023-01-09T14:49:16.883Z,0.90
2023-01-09T14:52:25.897Z,0.90
2023-01-09T14:55:53.987Z,1.20
2023-01-09T14:59:10.967Z,1.40
2023-01-09T15:02:13.023Z,0.97
2023-01-09T15:05:19.061Z,0.83
2023-01-09T15:08:26.074Z,0.90
2023-01-09T15:11:32.971Z,1.10
2023-01-09T15:14:39.972Z,0.83
2023-01-09T15:17:45.225Z,0.70
2023-01-09T15:20:51.583Z,1.13
2023-01-09T15:23:53.711Z,0.90
2023-01-09T15:27:15.909Z,1.00
2023-01-09T15:30:24.731Z,1.20
2023-01-09T15:33:27.119Z,1.33
2023-01-09T15:36:32.989Z,1.67
2023-01-09T15:39:39.184Z,1.10
2023-01-09T15:42:58.015Z,1.17
2023-01-09T15:46:01.071Z,1.20
2023-01-09T15:49:14.594Z,1.40
2023-01-09T15:52:18.305Z,1.20
2023-01-09T15:55:27.680Z,1.60
2023-01-09T15:58:38.328Z,1.40
2023-01-09T16:01:41.589Z,1.63
2023-01-09T16:04:43.534Z,1.30
2023-01-09T16:07:47.680Z,1.40
2023-01-09T16:10:56.070Z,1.57
2023-01-09T16:14:20.048Z,1.50
2023-01-09T16:17:27.089Z,1.40
2023-01-09T16:20:28.847Z,1.40
2023-01-09T16:23:34.262Z,1.50
2023-01-09T16:26:36.130Z,2.10
2023-01-09T16:29:44.761Z,1.33
2023-01-09T16:32:51.299Z,1.40
2023-01-09T16:35:53.816Z,1.80
2023-01-09T16:38:57.812Z,2.70
2023-01-09T16:42:18.473Z,2.00
2023-01-09T16:45:21.392Z,1.30
2023-01-09T16:48:23.152Z,1.70
2023-01-09T16:51:25.692Z,2.00
2023-01-09T16:54:27.463Z,2.30
2023-01-09T16:57:30.132Z,2.00
2023-01-09T17:00:32.097Z,2.40
2023-01-09T17:03:33.786Z,1.47
2023-01-09T17:06:35.759Z,1.60
2023-01-09T17:09:38.853Z,1.30
2023-01-09T17:12:42.689Z,2.03
2023-01-09T17:15:45.366Z,1.30
2023-01-09T17:18:47.200Z,0.90
2023-01-09T17:21:49.209Z,0.90
2023-01-09T17:25:09.368Z,1.00
2023-01-09T17:28:33.995Z,0.90
2023-01-09T17:31:37.881Z,0.70
2023-01-09T17:34:40.817Z,0.70
2023-01-09T17:37:43.063Z,1.00
2023-01-09T17:40:45.427Z,1.10
2023-01-09T17:43:47.093Z,0.80
2023-01-09T17:46:49.251Z,1.03
2023-01-09T17:49:51.137Z,0.80
2023-01-09T17:52:53.880Z,0.90
2023-01-09T17:55:55.625Z,0.60
2023-01-09T17:58:59.042Z,0.70
2023-01-09T18:02:00.878Z,0.70
2023-01-09T18:05:03.119Z,0.90
2023-01-09T18:08:09.106Z,0.77
2023-01-09T18:11:19.419Z,0.80
2023-01-09T18:14:21.335Z,0.80
2023-01-09T18:17:25.360Z,0.90
2023-01-09T18:20:30.123Z,0.80
2023-01-09T18:23:32.068Z,0.80
2023-01-09T18:26:33.886Z,0.90
2023-01-09T18:29:35.644Z,0.90
2023-01-09T18:32:37.520Z,1.07
2023-01-09T18:35:39.296Z,1.07
2023-01-09T18:38:45.014Z,0.90
2023-01-09T18:41:46.747Z,1.20
2023-01-09T18:44:51.099Z,1.00
2023-01-09T18:47:52.940Z,1.37
2023-01-09T18:51:05.779Z,1.20
2023-01-09T18:54:12.946Z,1.40
2023-01-09T18:57:14.648Z,1.30
2023-01-09T19:00:17.028Z,1.33
2023-01-09T19:03:19.006Z,1.30
2023-01-09T19:06:21.191Z,1.87
2023-01-09T19:09:25.454Z,1.10
2023-01-09T19:12:27.175Z,1.30
2023-01-09T19:15:34.730Z,1.20
2023-01-09T19:18:41.644Z,1.10
2023-01-09T19:21:45.636Z,1.03
2023-01-09T19:24:47.577Z,1.00
2023-01-09T19:27:56.173Z,1.00
2023-01-09T19:30:57.943Z,1.87
2023-01-09T19:33:59.641Z,2.23
2023-01-09T19:37:09.561Z,1.40
2023-01-09T19:40:11.737Z,1.30
2023-01-09T19:43:25.922Z,1.17
2023-01-09T19:46:33.425Z,1.03
2023-01-09T19:49:35.300Z,1.43
2023-01-09T19:52:37.460Z,1.10
2023-01-09T19:55:39.168Z,1.50
2023-01-09T19:58:48.611Z,1.50
2023-01-09T20:01:50.312Z,1.50
2023-01-09T20:04:51.965Z,1.57
2023-01-09T20:07:55.177Z,1.50
2023-01-09T20:10:56.814Z,1.30
2023-01-09T20:13:58.973Z,1.40
2023-01-09T20:17:04.112Z,1.87
2023-01-09T20:20:06.442Z,1.30
2023-01-09T20:23:08.024Z,1.20
2023-01-09T20:26:09.701Z,1.40
2023-01-09T20:29:11.642Z,1.50
2023-01-09T20:32:13.406Z,1.60
2023-01-09T20:35:15.198Z,1.23
2023-01-09T20:38:16.761Z,1.30
2023-01-09T20:41:25.307Z,1.00
2023-01-09T20:44:26.976Z,1.43
2023-01-09T20:47:28.863Z,1.20
2023-01-09T20:50:31.308Z,1.30
2023-01-09T20:53:33.311Z,0.93
2023-01-09T20:56:36.148Z,1.20
2023-01-09T20:59:37.820Z,1.30
2023-01-09T21:02:39.614Z,1.10
2023-01-09T21:05:41.563Z,1.47
2023-01-09T21:08:47.849Z,1.57
2023-01-09T21:11:49.562Z,1.27
2023-01-09T21:14:54.794Z,1.20
2023-01-09T21:17:56.405Z,1.73
2023-01-09T21:21:02.744Z,2.07
2023-01-09T21:24:04.809Z,1.80
2023-01-09T21:27:06.495Z,1.60
2023-01-09T21:30:10.573Z,1.63
2023-01-09T21:33:12.445Z,1.73
2023-01-09T21:36:14.306Z,1.67
2023-01-09T21:39:18.025Z,1.67
2023-01-09T21:42:38.324Z,1.67
2023-01-09T21:45:59.050Z,1.80
2023-01-09T21:49:03.944Z,1.57
2023-01-09T21:52:05.752Z,1.80
2023-01-09T21:55:08.769Z,1.83
2023-01-09T21:58:10.693Z,1.93
2023-01-09T22:01:12.349Z,1.67
2023-01-09T22:04:15.025Z,2.23
2023-01-09T22:07:16.776Z,1.87
2023-01-09T22:10:18.443Z,2.00
2023-01-09T22:13:20.411Z,2.10
2023-01-09T22:16:24.163Z,2.07
2023-01-09T22:19:28.127Z,2.40
2023-01-09T22:22:29.904Z,2.10
2023-01-09T22:25:31.550Z,1.93
2023-01-09T22:28:33.365Z,2.90
2023-01-09T22:31:35.187Z,1.80
2023-01-09T22:34:40.005Z,2.27
2023-01-09T22:37:41.697Z,2.40
2023-01-09T22:40:46.342Z,1.50
2023-01-09T22:43:48.254Z,2.20
2023-01-09T22:46:58.747Z,1.70
2023-01-09T22:50:01.162Z,1.70
2023-01-09T22:53:05.154Z,1.97
2023-01-09T22:56:08.370Z,2.23
2023-01-09T22:59:10.200Z,1.80
2023-01-09T23:02:12.054Z,1.80
2023-01-09T23:05:14.603Z,2.37
2023-01-09T23:08:16.227Z,2.17
2023-01-09T23:11:48.789Z,2.33
2023-01-09T23:14:50.500Z,3.60
2023-01-09T23:17:53.167Z,2.33
2023-01-09T23:21:00.540Z,2.30
2023-01-09T23:24:02.353Z,2.23
2023-01-09T23:27:04.540Z,2.03
2023-01-09T23:30:07.782Z,1.90
2023-01-09T23:33:09.578Z,2.50
2023-01-09T23:36:14.343Z,2.20
2023-01-09T23:39:16.316Z,1.87
2023-01-09T23:42:36.806Z,1.63
2023-01-09T23:45:43.978Z,1.50
2023-01-09T23:48:48.947Z,1.20
2023-01-09T23:51:50.757Z,1.73
2023-01-09T23:54:53.907Z,1.33
2023-01-09T23:57:55.941Z,1.50
